Weather at Tamworth Hospital Helipad

Public forecast

Using degrees Celsius for public forecast. Weather courtesy of forecast.io.

Closest aviation weather report (METAR) to Tamworth Hospital Helipad

Closest report is Tamworth Airport, 4.1 nm (7.6 km) W. Retrieved 2020/11/28 09:30 UTC (0 seconds ago):

YSTW 280930Z AUTO 31007KT 9999 // NCD 30/09 Q1011 RF000/0000

Closest aviation forecast (TAF) to Tamworth Hospital Helipad

Closest forecast is Tamworth Airport, 4.1 nm (7.6 km) W. Retrieved 2020/11/28 06:00 UTC (3 hours ago):

TAF YSTW 280516Z 2806/2900 30012KT CAVOK FM280800 35010KT CAVOK FM282200 34015G25KT CAVOK